Time;durP1;ratioP1;P1;durP2;ratioP2;P2;SDS_P1;SDS_P2;PMS_P1;PMS_P2;Temp;Humidity;BMP_temperature;BMP_pressure;BME280_temperature;BME280_humidity;BME280_pressure;Samples;Min_cycle;Max_cycle;Signal;HPM_P1;HPM_P2
2021/03/21 00:03:16;;;;;;;6.40;4.83;;;;;;;4.41;46.76;95942.66;6876613;28;20220;-76
2021/03/21 00:06:36;;;;;;;7.10;4.90;;;;;;;4.41;46.34;95941.81;6878199;28;20217;-76
2021/03/21 00:09:57;;;;;;;5.93;5.00;;;;;;;4.38;46.76;95948.06;6888867;28;20223;-76
2021/03/21 00:13:19;;;;;;;7.50;5.23;;;;;;;4.41;46.36;95952.31;6888421;28;20232;-76
2021/03/21 00:16:39;;;;;;;9.47;7.03;;;;;;;4.35;46.60;95948.25;6902077;28;20321;-75
2021/03/21 00:20:00;;;;;;;7.30;6.57;;;;;;;4.32;46.91;95948.41;6900975;28;20224;-76
2021/03/21 00:23:21;;;;;;;7.57;6.50;;;;;;;4.34;47.76;95946.53;6902922;28;20282;-76
2021/03/21 00:26:44;;;;;;;10.83;7.30;;;;;;;4.30;47.56;95950.25;6903647;28;20222;-75
2021/03/21 00:30:07;;;;;;;9.93;7.20;;;;;;;4.23;47.96;95944.47;6892975;28;20215;-76
2021/03/21 00:33:29;;;;;;;8.67;6.33;;;;;;;4.21;47.78;95941.09;6886752;28;20250;-76
2021/03/21 00:36:50;;;;;;;7.80;5.90;;;;;;;4.18;48.15;95943.88;6901889;28;20708;-76
2021/03/21 00:40:15;;;;;;;8.47;6.00;;;;;;;4.13;47.43;95943.25;6900152;28;20685;-76
2021/03/21 00:43:35;;;;;;;6.87;6.00;;;;;;;4.06;48.05;95941.03;6907864;28;20224;-75
2021/03/21 00:46:56;;;;;;;6.83;5.73;;;;;;;3.99;48.44;95948.41;6900054;28;20239;-75
2021/03/21 00:50:21;;;;;;;8.50;6.33;;;;;;;3.87;48.74;95949.03;6901157;28;20307;-75
2021/03/21 00:53:41;;;;;;;7.80;6.57;;;;;;;3.79;48.92;95940.69;6913966;28;20226;-76
2021/03/21 00:57:02;;;;;;;9.20;6.77;;;;;;;3.79;49.08;95933.66;6910272;28;20322;-76
2021/03/21 01:00:32;;;;;;;8.03;7.17;;;;;;;3.77;49.22;95925.00;6909637;28;20306;-76
2021/03/21 01:03:55;;;;;;;8.87;7.07;;;;;;;3.80;49.42;95930.13;6912858;28;20259;-76
2021/03/21 01:07:16;;;;;;;7.17;5.80;;;;;;;3.81;49.74;95933.59;6890997;28;20314;-77
2021/03/21 01:10:36;;;;;;;7.10;6.20;;;;;;;3.76;49.87;95932.97;6889797;28;20221;-76
2021/03/21 01:13:57;;;;;;;7.17;6.47;;;;;;;3.70;49.80;95925.41;6905533;28;20314;-76
2021/03/21 01:17:17;;;;;;;7.17;6.43;;;;;;;3.63;49.55;95921.38;6904177;28;20923;-76
2021/03/21 01:20:38;;;;;;;7.00;6.30;;;;;;;3.53;50.06;95918.38;6914794;28;20269;-76
2021/03/21 01:23:58;;;;;;;7.70;6.70;;;;;;;3.52;50.18;95914.03;6904674;28;20216;-76
2021/03/21 01:27:19;;;;;;;7.83;6.17;;;;;;;3.47;49.70;95908.19;6912804;28;20221;-76
2021/03/21 01:30:39;;;;;;;6.97;6.10;;;;;;;3.41;49.83;95901.50;6901759;28;20265;-76
2021/03/21 01:34:00;;;;;;;5.93;5.33;;;;;;;3.43;49.84;95909.25;6906092;28;20301;-76
2021/03/21 01:37:20;;;;;;;5.07;4.57;;;;;;;3.41;49.57;95904.13;6912998;28;20220;-76
2021/03/21 01:40:41;;;;;;;6.93;6.23;;;;;;;3.39;49.73;95908.56;6908421;28;20223;-76
2021/03/21 01:44:08;;;;;;;8.63;7.77;;;;;;;3.41;49.81;95898.00;6901235;28;20262;-75
2021/03/21 01:47:38;;;;;;;8.40;7.50;;;;;;;3.41;49.42;95901.50;6917208;28;20290;-76
2021/03/21 01:51:01;;;;;;;6.50;5.90;;;;;;;3.34;49.31;95899.22;6898891;28;20247;-76
2021/03/21 01:54:25;;;;;;;6.63;5.87;;;;;;;3.34;49.71;95897.47;6917574;28;20320;-75
2021/03/21 01:57:48;;;;;;;6.77;6.03;;;;;;;3.40;48.88;95898.94;6905522;28;20250;-76
2021/03/21 02:01:22;;;;;;;5.80;5.20;;;;;;;3.44;48.57;95885.56;6910020;28;20364;-76
2021/03/21 02:04:42;;;;;;;5.83;5.33;;;;;;;3.36;48.51;95877.25;6887380;28;20261;-75
2021/03/21 02:08:24;;;;;;;6.37;5.30;;;;;;;3.29;48.65;95875.84;6913803;28;20227;-75
2021/03/21 02:12:16;;;;;;;7.53;5.20;;;;;;;3.20;48.31;95865.81;6908893;28;20296;-75
2021/03/21 02:15:43;;;;;;;6.50;5.20;;;;;;;3.13;48.23;95868.81;6892927;28;20291;-75
2021/03/21 02:19:16;;;;;;;5.70;5.20;;;;;;;3.01;48.10;95863.25;6919480;28;20226;-75
2021/03/21 02:22:51;;;;;;;6.80;6.20;;;;;;;2.93;48.40;95860.16;6914625;28;20893;-75
2021/03/21 02:26:29;;;;;;;7.17;6.47;;;;;;;2.88;48.50;95856.91;6917624;28;20625;-75
2021/03/21 02:29:52;;;;;;;6.50;5.90;;;;;;;2.86;48.66;95850.06;6907080;28;20238;-76
2021/03/21 02:33:18;;;;;;;6.83;5.93;;;;;;;2.82;49.10;95846.72;6910528;28;20306;-76
2021/03/21 02:36:45;;;;;;;6.77;6.00;;;;;;;2.79;48.95;95849.50;6905167;28;20205;-75
2021/03/21 02:40:20;;;;;;;6.00;5.40;;;;;;;2.76;49.30;95847.03;6913735;28;20705;-75
2021/03/21 02:43:57;;;;;;;6.10;5.50;;;;;;;2.65;48.87;95854.56;6890596;28;20211;-75
2021/03/21 02:47:21;;;;;;;5.47;4.97;;;;;;;2.56;48.82;95849.78;6911329;28;20219;-75
2021/03/21 02:50:47;;;;;;;5.40;4.90;;;;;;;2.51;48.80;95846.53;6901620;28;20269;-74
2021/03/21 02:54:12;;;;;;;6.13;5.13;;;;;;;2.43;48.42;95839.00;6914036;28;20297;-72
2021/03/21 02:57:38;;;;;;;7.27;5.20;;;;;;;2.39;48.49;95844.47;6912981;28;20975;-73
2021/03/21 03:01:04;;;;;;;6.40;5.50;;;;;;;2.34;48.42;95842.06;6915166;28;20218;-72
2021/03/21 03:04:29;;;;;;;6.67;5.70;;;;;;;2.31;48.46;95837.00;6915316;28;20671;-73
2021/03/21 03:07:57;;;;;;;5.27;4.77;;;;;;;2.26;48.46;95845.97;6912475;28;20640;-73
2021/03/21 03:11:39;;;;;;;5.20;4.70;;;;;;;2.20;48.63;95851.50;6914148;28;20323;-73
2021/03/21 03:15:09;;;;;;;6.80;5.60;;;;;;;2.19;48.30;95842.78;6917669;28;20229;-73
2021/03/21 03:18:50;;;;;;;7.73;5.80;;;;;;;2.24;48.72;95832.94;6896888;28;20307;-73
2021/03/21 03:22:23;;;;;;;5.10;4.60;;;;;;;2.23;48.86;95836.47;6902525;28;20241;-73
2021/03/21 03:25:52;;;;;;;6.57;5.07;;;;;;;2.15;48.76;95825.53;6915077;28;20362;-73
2021/03/21 03:29:25;;;;;;;6.00;5.10;;;;;;;2.09;48.67;95826.66;6912332;28;20223;-73
2021/03/21 03:32:46;;;;;;;6.43;5.07;;;;;;;2.07;48.44;95812.75;6905999;28;20229;-73
2021/03/21 03:36:09;;;;;;;6.40;5.03;;;;;;;2.09;48.38;95807.47;6898838;28;20248;-73
2021/03/21 03:39:30;;;;;;;5.57;5.07;;;;;;;2.09;48.16;95803.06;6911896;28;20606;-72
2021/03/21 03:43:15;;;;;;;6.87;5.60;;;;;;;2.10;48.16;95807.41;6899192;28;20771;-73
2021/03/21 03:46:38;;;;;;;6.20;5.60;;;;;;;2.11;48.72;95805.63;6903859;28;20228;-72
2021/03/21 03:50:00;;;;;;;6.07;5.43;;;;;;;2.09;48.41;95810.94;6898126;28;20321;-73
2021/03/21 03:53:38;;;;;;;6.77;5.70;;;;;;;2.03;48.63;95811.22;6915952;28;20232;-73
2021/03/21 03:57:13;;;;;;;6.93;5.43;;;;;;;1.96;48.79;95816.81;6898389;28;20353;-73
2021/03/21 04:00:45;;;;;;;5.60;5.10;;;;;;;1.96;48.65;95814.22;6910113;28;20697;-73
2021/03/21 04:04:12;;;;;;;6.70;5.53;;;;;;;1.98;48.99;95804.50;6896035;28;20335;-72
2021/03/21 04:08:01;;;;;;;8.00;6.30;;;;;;;2.00;49.18;95807.91;6915477;28;20216;-73
2021/03/21 04:11:32;;;;;;;7.37;4.87;;;;;;;1.95;49.01;95808.13;6906731;28;20584;-72
2021/03/21 04:15:13;;;;;;;6.57;5.10;;;;;;;1.88;48.98;95811.91;6917428;28;20230;-72
2021/03/21 04:19:14;;;;;;;5.73;5.13;;;;;;;1.85;48.95;95793.75;6907467;28;20316;-72
2021/03/21 04:23:01;;;;;;;6.50;5.60;;;;;;;1.82;49.53;95804.34;6901137;28;20241;-72
2021/03/21 04:26:41;;;;;;;6.67;5.77;;;;;;;1.78;49.34;95805.41;6894162;28;20692;-72
2021/03/21 04:30:13;;;;;;;7.43;5.53;;;;;;;1.77;49.96;95813.31;6917634;28;20224;-72
2021/03/21 04:33:42;;;;;;;6.90;5.93;;;;;;;1.72;49.70;95809.16;6918356;28;20237;-73
2021/03/21 04:37:03;;;;;;;6.87;5.70;;;;;;;1.72;49.69;95809.16;6883943;28;20208;-72
2021/03/21 04:40:24;;;;;;;6.37;5.77;;;;;;;1.73;49.90;95800.38;6906600;28;20233;-73
2021/03/21 04:43:58;;;;;;;10.57;7.67;;;;;;;1.72;50.37;95798.69;6889038;28;20248;-73
2021/03/21 04:47:25;;;;;;;7.70;6.90;;;;;;;1.71;51.19;95798.78;6906912;28;20595;-73
2021/03/21 04:50:45;;;;;;;6.17;5.40;;;;;;;1.68;51.07;95791.91;6904892;28;20800;-73
2021/03/21 04:54:14;;;;;;;5.80;5.20;;;;;;;1.62;50.29;95794.78;6908055;28;20233;-73
2021/03/21 04:57:49;;;;;;;6.67;5.93;;;;;;;1.62;50.37;95807.88;6903137;28;20225;-73
2021/03/21 05:01:17;;;;;;;8.50;5.47;;;;;;;1.68;50.46;95804.97;6889040;28;20608;-73
2021/03/21 05:04:48;;;;;;;6.50;5.80;;;;;;;1.78;50.38;95799.31;6905507;28;20215;-73
2021/03/21 05:08:23;;;;;;;6.50;5.90;;;;;;;1.89;50.47;95808.38;6915636;28;20298;-73
2021/03/21 05:11:55;;;;;;;6.50;5.90;;;;;;;1.95;50.71;95802.88;6908244;28;20217;-73
2021/03/21 05:15:25;;;;;;;8.60;7.73;;;;;;;2.06;50.92;95818.09;6912656;28;20217;-73
2021/03/21 05:18:52;;;;;;;7.87;6.97;;;;;;;2.24;51.19;95811.13;6905691;28;20230;-73
2021/03/21 05:22:44;;;;;;;7.90;7.07;;;;;;;2.35;51.15;95817.56;6909332;28;20213;-72
2021/03/21 05:26:09;;;;;;;7.47;6.77;;;;;;;2.46;50.92;95820.53;6907833;28;20256;-73
2021/03/21 05:29:58;;;;;;;7.60;6.80;;;;;;;2.52;51.06;95824.59;6902539;28;20225;-72
2021/03/21 05:33:21;;;;;;;9.27;6.67;;;;;;;2.56;51.42;95828.81;6909106;28;20728;-72
2021/03/21 05:37:23;;;;;;;6.50;5.90;;;;;;;2.48;51.16;95826.53;6900254;28;20216;-72
2021/03/21 05:41:09;;;;;;;6.70;6.10;;;;;;;2.50;51.36;95829.09;6895304;28;20268;-72
2021/03/21 05:44:51;;;;;;;7.17;6.23;;;;;;;2.48;50.88;95834.41;6895611;28;20261;-73
2021/03/21 05:48:14;;;;;;;8.53;7.73;;;;;;;2.52;51.39;95835.09;6903449;28;20257;-73
2021/03/21 05:51:59;;;;;;;8.27;7.47;;;;;;;2.47;52.35;95835.31;6913532;28;20344;-73
2021/03/21 05:55:46;;;;;;;11.23;8.03;;;;;;;2.41;52.80;95838.25;6905114;28;20288;-73
2021/03/21 05:59:15;;;;;;;11.67;8.07;;;;;;;2.40;53.89;95831.31;6911221;28;20857;-73
2021/03/21 06:03:06;;;;;;;9.43;8.53;;;;;;;2.51;54.16;95822.94;6906615;28;20303;-72
2021/03/21 06:07:00;;;;;;;9.13;8.10;;;;;;;2.53;54.57;95819.28;6896138;28;20237;-73
2021/03/21 06:10:37;;;;;;;8.53;7.63;;;;;;;2.61;54.44;95800.59;6919460;28;20232;-73
2021/03/21 06:14:07;;;;;;;9.40;8.30;;;;;;;2.71;54.21;95801.84;6910382;28;20718;-72
2021/03/21 06:18:06;;;;;;;8.83;7.93;;;;;;;2.77;54.59;95803.28;6916933;28;20232;-73
2021/03/21 06:21:33;;;;;;;8.37;7.57;;;;;;;2.85;53.98;95798.50;6903001;28;20770;-73
2021/03/21 06:25:20;;;;;;;9.93;8.40;;;;;;;2.97;54.08;95790.00;6911997;28;20625;-73
2021/03/21 06:29:01;;;;;;;9.70;6.80;;;;;;;3.09;54.32;95799.03;6904830;28;20245;-73
2021/03/21 06:32:55;;;;;;;7.40;6.70;;;;;;;3.27;54.13;95801.56;6896517;28;20240;-73
2021/03/21 06:36:28;;;;;;;11.63;6.77;;;;;;;3.36;54.10;95790.63;6893472;28;20289;-73
2021/03/21 06:40:29;;;;;;;8.97;6.80;;;;;;;3.45;54.13;95805.03;6909846;28;20221;-73
2021/03/21 06:44:29;;;;;;;9.40;6.87;;;;;;;3.50;54.14;95815.28;6900028;28;20234;-73
2021/03/21 06:48:11;;;;;;;9.33;7.33;;;;;;;3.51;53.81;95815.22;6909863;28;20233;-73
2021/03/21 06:52:09;;;;;;;7.43;6.67;;;;;;;3.59;54.27;95828.78;6912551;28;20226;-73
2021/03/21 06:55:40;;;;;;;7.53;6.73;;;;;;;3.68;53.55;95841.44;6892775;28;20237;-74
2021/03/21 06:59:33;;;;;;;8.43;6.70;;;;;;;3.71;53.71;95833.41;6904399;28;20226;-73
2021/03/21 07:03:14;;;;;;;9.30;7.60;;;;;;;3.68;53.73;95838.81;6905215;28;20215;-73
2021/03/21 07:06:46;;;;;;;8.50;7.07;;;;;;;3.60;53.41;95825.22;6906644;28;20250;-73
2021/03/21 07:10:30;;;;;;;8.83;7.17;;;;;;;3.58;53.29;95824.44;6907373;28;20238;-73
2021/03/21 07:13:53;;;;;;;7.00;6.30;;;;;;;3.67;53.53;95823.16;6905117;28;20242;-74
2021/03/21 07:17:33;;;;;;;9.40;7.73;;;;;;;3.76;53.59;95820.88;6904740;28;20247;-73
2021/03/21 07:21:05;;;;;;;10.23;7.47;;;;;;;3.85;53.28;95811.66;6904244;28;20202;-73
2021/03/21 07:25:00;;;;;;;9.03;6.27;;;;;;;3.86;53.32;95808.09;6902167;28;20704;-74
2021/03/21 07:28:32;;;;;;;7.10;6.00;;;;;;;3.85;53.29;95809.03;6905511;28;20217;-73
2021/03/21 07:32:03;;;;;;;6.50;5.90;;;;;;;3.95;53.08;95798.84;6902329;28;20234;-73
2021/03/21 07:35:48;;;;;;;7.57;6.07;;;;;;;4.10;53.09;95811.16;6905082;28;20226;-73
2021/03/21 07:39:15;;;;;;;7.00;5.80;;;;;;;4.04;52.40;95800.97;6903373;28;20222;-74
2021/03/21 07:43:13;;;;;;;7.97;6.53;;;;;;;4.07;53.09;95796.44;6901306;28;20219;-75
2021/03/21 07:46:39;;;;;;;7.53;6.27;;;;;;;4.12;53.17;95797.03;6899832;28;20216;-76
2021/03/21 07:50:22;;;;;;;9.03;7.53;;;;;;;4.25;52.65;95787.53;6902055;28;20223;-75
2021/03/21 07:53:55;;;;;;;8.97;7.37;;;;;;;4.38;53.14;95792.06;6902686;28;20227;-75
2021/03/21 07:57:48;;;;;;;6.57;5.97;;;;;;;4.50;52.78;95789.63;6895846;28;20223;-75
2021/03/21 08:01:08;;;;;;;8.07;6.70;;;;;;;4.57;52.59;95790.13;6895972;28;20220;-76
2021/03/21 08:04:50;;;;;;;9.37;7.50;;;;;;;4.71;52.62;95791.03;6911273;28;20303;-75
2021/03/21 08:08:15;;;;;;;9.20;7.90;;;;;;;4.86;52.49;95789.31;6897973;28;20310;-74
2021/03/21 08:11:38;;;;;;;7.73;6.80;;;;;;;4.88;51.87;95797.13;6878649;28;20228;-76
2021/03/21 08:15:08;;;;;;;8.90;7.00;;;;;;;4.93;51.34;95800.34;6894565;28;20228;-77
2021/03/21 08:18:36;;;;;;;6.70;5.93;;;;;;;4.96;51.30;95794.88;6895684;28;20335;-76
2021/03/21 08:21:57;;;;;;;7.33;6.20;;;;;;;4.97;50.90;95802.69;6896020;28;20215;-75
2021/03/21 08:25:24;;;;;;;8.77;6.63;;;;;;;4.97;50.95;95796.56;6883425;28;20213;-75
2021/03/21 08:29:14;;;;;;;7.13;6.43;;;;;;;5.01;50.88;95798.94;6899558;28;20267;-77
2021/03/21 08:33:10;;;;;;;7.90;6.47;;;;;;;5.03;50.74;95799.69;6898104;28;20235;-76
2021/03/21 08:36:30;;;;;;;6.23;5.63;;;;;;;5.08;50.83;95800.25;6899833;28;20690;-75
2021/03/21 08:40:00;;;;;;;7.00;6.33;;;;;;;5.22;50.27;95796.84;6899181;28;20704;-75
2021/03/21 08:43:27;;;;;;;7.13;6.43;;;;;;;5.27;50.21;95786.88;6897126;28;20228;-75
2021/03/21 08:46:50;;;;;;;7.27;5.77;;;;;;;5.41;50.16;95792.16;6894983;28;20574;-75
2021/03/21 08:50:31;;;;;;;7.00;6.30;;;;;;;5.50;50.07;95794.25;6896394;28;20221;-75
2021/03/21 08:54:00;;;;;;;9.20;6.57;;;;;;;5.46;49.99;95794.53;6899771;28;20792;-76
2021/03/21 08:57:38;;;;;;;7.33;6.57;;;;;;;5.40;49.96;95794.88;6899218;28;20226;-75
2021/03/21 09:01:16;;;;;;;8.00;6.60;;;;;;;5.44;50.14;95801.66;6901269;28;20204;-76
2021/03/21 09:04:41;;;;;;;7.77;6.80;;;;;;;5.48;50.08;95790.84;6899496;28;20459;-76
2021/03/21 09:08:09;;;;;;;8.27;7.43;;;;;;;5.55;50.39;95797.44;6898045;28;20232;-74
2021/03/21 09:11:34;;;;;;;11.30;7.07;;;;;;;5.61;50.37;95794.44;6894400;28;20220;-75
2021/03/21 09:15:37;;;;;;;9.20;8.30;;;;;;;5.68;50.51;95797.56;6901251;28;20224;-76
2021/03/21 09:19:18;;;;;;;7.70;7.00;;;;;;;5.73;50.67;95782.31;6843261;28;20587;-76
2021/03/21 09:22:41;;;;;;;9.80;7.70;;;;;;;5.77;50.53;95772.44;6897931;28;20317;-74
2021/03/21 09:26:23;;;;;;;8.33;6.90;;;;;;;5.80;50.66;95780.13;6902167;28;20291;-75
2021/03/21 09:29:45;;;;;;;7.67;6.87;;;;;;;5.68;50.12;95778.25;6887793;28;20683;-75
2021/03/21 09:33:13;;;;;;;8.03;6.83;;;;;;;5.67;50.49;95779.19;6878308;28;20217;-75
2021/03/21 09:36:42;;;;;;;7.30;6.03;;;;;;;5.61;50.17;95786.53;6894457;28;20705;-76
2021/03/21 09:40:11;;;;;;;8.13;6.77;;;;;;;5.60;50.27;95782.19;6897021;28;20278;-76
2021/03/21 09:43:37;;;;;;;8.50;7.20;;;;;;;5.70;50.61;95786.91;6900567;28;20712;-76
2021/03/21 09:47:19;;;;;;;10.37;7.63;;;;;;;5.85;50.48;95776.28;6889737;28;20236;-77
2021/03/21 09:50:40;;;;;;;8.90;8.00;;;;;;;5.93;49.87;95783.75;6892719;28;20708;-76
2021/03/21 09:54:03;;;;;;;8.77;6.87;;;;;;;6.03;50.12;95774.31;6886294;28;20228;-76
2021/03/21 09:57:35;;;;;;;7.47;6.50;;;;;;;6.07;50.00;95775.81;6896548;28;20299;-75
2021/03/21 10:01:08;;;;;;;8.03;6.60;;;;;;;6.16;49.93;95777.88;6883212;28;20223;-75
2021/03/21 10:05:04;;;;;;;9.23;7.07;;;;;;;6.34;49.26;95789.03;6897928;28;20314;-76
2021/03/21 10:08:53;;;;;;;9.27;7.10;;;;;;;6.42;48.93;95790.25;6898521;28;20218;-76
2021/03/21 10:12:16;;;;;;;7.57;6.77;;;;;;;6.45;48.32;95789.19;6896611;28;20303;-75
2021/03/21 10:16:13;;;;;;;7.20;5.97;;;;;;;6.46;47.69;95799.66;6914555;28;20228;-75
2021/03/21 10:19:46;;;;;;;7.23;6.50;;;;;;;6.51;47.56;95794.09;6921498;28;20223;-75
2021/03/21 10:23:09;;;;;;;7.73;5.87;;;;;;;6.56;47.72;95794.66;6912647;28;20776;-77
2021/03/21 10:26:31;;;;;;;7.73;5.87;;;;;;;6.59;47.27;95793.63;6906354;28;20224;-76
2021/03/21 10:30:30;;;;;;;7.10;6.20;;;;;;;6.75;46.80;95792.50;6903249;28;20593;-77
2021/03/21 10:33:53;;;;;;;8.47;6.33;;;;;;;6.73;46.26;95788.28;6889497;28;20238;-77
2021/03/21 10:37:42;;;;;;;7.47;6.53;;;;;;;6.70;45.59;95780.53;6894364;28;20744;-77
2021/03/21 10:41:04;;;;;;;7.70;6.30;;;;;;;6.65;45.73;95782.63;6897898;28;20231;-76
2021/03/21 10:44:31;;;;;;;7.00;6.30;;;;;;;6.59;45.80;95778.59;6890737;28;20229;-76
2021/03/21 10:47:51;;;;;;;6.43;5.80;;;;;;;6.68;46.19;95767.47;6909548;28;20224;-76
2021/03/21 10:51:13;;;;;;;9.23;5.80;;;;;;;6.76;45.38;95774.88;6908769;28;20250;-76
2021/03/21 10:54:34;;;;;;;6.50;5.87;;;;;;;6.79;44.60;95772.88;6901941;28;20229;-76
2021/03/21 10:57:59;;;;;;;6.03;5.43;;;;;;;6.91;44.85;95760.66;6902968;28;20235;-76
2021/03/21 11:04:40;;;;;;;8.13;5.77;;;;;;;7.04;43.76;95755.44;6912315;28;20784;-77
2021/03/21 11:08:25;;;;;;;8.50;6.07;;;;;;;7.12;43.74;95753.97;6905812;28;20214;-76
2021/03/21 11:11:48;;;;;;;6.73;5.10;;;;;;;7.20;43.22;95750.78;6910136;28;20306;-76
2021/03/21 11:15:30;;;;;;;7.10;5.30;;;;;;;7.37;42.97;95747.00;6901019;28;20234;-76
2021/03/21 11:18:53;;;;;;;6.67;6.00;;;;;;;7.51;43.70;95731.03;6897029;28;20216;-76
2021/03/21 11:22:43;;;;;;;6.53;5.47;;;;;;;7.77;43.25;95740.66;6908073;28;20721;-77
2021/03/21 11:26:21;;;;;;;5.67;5.00;;;;;;;7.87;41.84;95752.28;6905322;28;20234;-77
2021/03/21 11:29:42;;;;;;;7.07;4.93;;;;;;;7.97;41.82;95745.38;6899240;28;20245;-75
2021/03/21 11:33:21;;;;;;;5.90;5.20;;;;;;;8.10;41.28;95750.63;6900274;28;20221;-76
2021/03/21 11:36:46;;;;;;;5.73;4.83;;;;;;;8.32;41.37;95742.06;6905927;28;20300;-77
2021/03/21 11:40:22;;;;;;;5.17;4.60;;;;;;;8.45;40.93;95733.09;6902108;28;20299;-76
2021/03/21 11:43:45;;;;;;;5.47;4.77;;;;;;;8.61;39.76;95736.34;6904249;28;20232;-77
2021/03/21 11:47:14;;;;;;;5.77;4.80;;;;;;;8.49;39.69;95726.66;6904224;28;20251;-77
2021/03/21 11:50:37;;;;;;;6.77;4.83;;;;;;;8.48;39.61;95727.59;6899289;28;20310;-76
2021/03/21 11:54:00;;;;;;;5.17;4.57;;;;;;;8.56;39.97;95730.53;6897401;28;20231;-77
2021/03/21 11:57:49;;;;;;;4.80;4.30;;;;;;;8.56;39.12;95719.94;6896778;28;20990;-77
2021/03/21 12:01:13;;;;;;;5.03;4.27;;;;;;;8.50;39.32;95708.97;6883256;28;20209;-77
2021/03/21 12:04:40;;;;;;;5.23;4.70;;;;;;;8.59;38.75;95721.53;6908747;28;20232;-76
2021/03/21 12:08:13;;;;;;;4.63;4.00;;;;;;;8.61;37.84;95709.84;6911684;28;20224;-77
2021/03/21 12:11:38;;;;;;;4.83;4.33;;;;;;;8.44;37.53;95710.28;6912442;28;20227;-76
2021/03/21 12:14:59;;;;;;;4.40;4.00;;;;;;;8.32;36.71;95700.56;6901993;28;20343;-77
2021/03/21 12:18:25;;;;;;;4.57;4.17;;;;;;;8.20;36.79;95701.41;6911926;28;20585;-77
2021/03/21 12:21:50;;;;;;;3.90;3.37;;;;;;;8.36;37.04;95701.19;6916914;28;20318;-78
2021/03/21 12:25:30;;;;;;;5.27;3.47;;;;;;;8.49;36.16;95694.06;6887493;28;20212;-77
2021/03/21 12:29:03;;;;;;;3.83;3.40;;;;;;;8.35;35.25;95697.69;6896914;28;20243;-77
2021/03/21 12:32:40;;;;;;;4.77;3.37;;;;;;;8.18;35.51;95683.03;6901937;28;20215;-77
2021/03/21 12:36:03;;;;;;;4.17;3.20;;;;;;;8.14;35.63;95673.63;6900265;28;20235;-77
2021/03/21 12:39:30;;;;;;;4.03;3.60;;;;;;;8.30;36.25;95683.13;6893260;28;20236;-79
2021/03/21 12:42:51;;;;;;;6.13;3.77;;;;;;;8.58;36.09;95680.13;6905733;28;20220;-77
2021/03/21 12:46:14;;;;;;;4.20;3.70;;;;;;;8.57;34.92;95679.28;6910927;28;20294;-77
2021/03/21 12:49:52;;;;;;;5.23;4.33;;;;;;;8.64;35.17;95677.03;6896595;28;20621;-77
2021/03/21 12:53:20;;;;;;;4.07;3.50;;;;;;;8.61;34.65;95683.38;6912011;28;20224;-77
2021/03/21 12:56:43;;;;;;;4.07;3.40;;;;;;;8.53;35.05;95677.81;6916936;28;20261;-75
2021/03/21 13:00:05;;;;;;;3.90;3.10;;;;;;;8.67;35.14;95679.44;6902932;28;20212;-79
2021/03/21 13:03:30;;;;;;;4.07;3.50;;;;;;;8.67;34.97;95683.88;6922855;28;20232;-79
2021/03/21 13:06:58;;;;;;;3.67;3.23;;;;;;;8.80;34.85;95677.56;6904193;28;20565;-76
2021/03/21 13:10:21;;;;;;;4.70;3.93;;;;;;;8.84;34.80;95681.69;6906718;28;20224;-78
2021/03/21 13:13:42;;;;;;;3.67;3.37;;;;;;;8.84;34.36;95692.28;6908539;28;20756;-80
2021/03/21 13:17:03;;;;;;;5.93;3.53;;;;;;;8.78;34.77;95687.44;6912397;28;20220;-77
2021/03/21 13:20:24;;;;;;;3.87;3.47;;;;;;;8.65;34.27;95683.19;6891363;28;20213;-76
2021/03/21 13:23:44;;;;;;;4.13;3.40;;;;;;;8.64;34.65;95686.78;6909826;28;20699;-76
2021/03/21 13:27:07;;;;;;;6.10;3.70;;;;;;;8.64;34.12;95674.38;6905650;28;20851;-76
2021/03/21 13:30:30;;;;;;;4.57;3.00;;;;;;;8.47;34.49;95677.44;6891889;28;20383;-74
2021/03/21 13:33:54;;;;;;;3.80;3.40;;;;;;;8.60;35.17;95676.41;6902399;28;20235;-77
2021/03/21 13:37:17;;;;;;;4.63;3.43;;;;;;;8.65;35.01;95659.34;6902221;28;20659;-77
2021/03/21 13:40:41;;;;;;;3.73;3.20;;;;;;;8.69;34.83;95656.34;6897028;28;21741;-78
2021/03/21 13:44:05;;;;;;;3.93;3.27;;;;;;;8.87;35.12;95657.59;6898897;28;20228;-76
2021/03/21 13:47:25;;;;;;;3.83;3.17;;;;;;;9.12;34.63;95635.38;6900215;28;20212;-77
2021/03/21 13:50:47;;;;;;;4.30;3.53;;;;;;;8.89;35.53;95644.25;6882677;28;20663;-76
2021/03/21 13:54:08;;;;;;;4.33;3.43;;;;;;;8.82;36.45;95640.38;6899521;28;20263;-75
2021/03/21 13:57:29;;;;;;;6.40;3.97;;;;;;;8.73;36.89;95641.06;6900703;28;20228;-76
2021/03/21 14:00:49;;;;;;;6.00;3.53;;;;;;;8.95;37.84;95638.50;6907560;28;20234;-75
2021/03/21 14:04:12;;;;;;;3.77;3.47;;;;;;;9.30;37.52;95643.75;6916978;28;20257;-76
2021/03/21 14:07:32;;;;;;;4.10;3.70;;;;;;;9.59;36.50;95634.34;6899620;28;20589;-77
2021/03/21 14:10:55;;;;;;;3.60;3.30;;;;;;;9.69;36.21;95618.56;6914317;28;21100;-75
2021/03/21 14:14:16;;;;;;;3.60;3.30;;;;;;;9.79;36.01;95620.34;6894092;28;20227;-76
2021/03/21 14:17:36;;;;;;;3.83;3.10;;;;;;;9.61;35.91;95616.50;6909978;28;20208;-75
2021/03/21 14:20:57;;;;;;;3.83;3.40;;;;;;;9.47;36.34;95606.13;6923065;28;20227;-77
2021/03/21 14:24:17;;;;;;;4.63;3.27;;;;;;;9.46;37.51;95607.09;6914357;28;20223;-76
2021/03/21 14:27:38;;;;;;;3.33;2.93;;;;;;;9.66;37.76;95602.88;6917457;28;20214;-77
2021/03/21 14:30:58;;;;;;;3.27;2.97;;;;;;;9.69;37.65;95600.00;6907771;28;20212;-79
2021/03/21 14:34:19;;;;;;;3.50;3.03;;;;;;;9.70;37.80;95589.28;6913328;28;20233;-78
2021/03/21 14:37:40;;;;;;;4.57;3.23;;;;;;;9.72;37.41;95581.16;6914767;28;20221;-78
2021/03/21 14:41:01;;;;;;;6.80;3.63;;;;;;;9.63;37.55;95592.50;6886652;28;20373;-78
2021/03/21 14:44:21;;;;;;;8.67;4.23;;;;;;;9.48;37.37;95590.13;6893345;28;20244;-77
2021/03/21 14:47:41;;;;;;;4.83;3.80;;;;;;;9.39;38.84;95597.97;6897712;28;20227;-77
2021/03/21 14:51:04;;;;;;;6.60;4.33;;;;;;;9.36;38.34;95582.28;6904121;28;20232;-76
2021/03/21 14:54:30;;;;;;;6.03;4.80;;;;;;;9.23;39.22;95585.06;6905257;28;20776;-76
2021/03/21 14:57:50;;;;;;;5.33;4.80;;;;;;;9.04;39.04;95580.34;6901108;28;20269;-76
2021/03/21 15:01:11;;;;;;;6.73;4.60;;;;;;;9.04;39.46;95571.56;6903681;28;20571;-78
2021/03/21 15:04:31;;;;;;;6.87;4.43;;;;;;;9.22;39.20;95570.13;6904062;28;20805;-79
2021/03/21 15:07:55;;;;;;;5.23;4.60;;;;;;;9.23;39.17;95557.72;6888574;28;20255;-76
2021/03/21 15:11:15;;;;;;;5.27;4.77;;;;;;;9.34;39.74;95561.22;6902438;28;20799;-76
2021/03/21 15:14:38;;;;;;;5.47;4.37;;;;;;;9.42;39.09;95558.78;6910278;28;20760;-77
2021/03/21 15:17:59;;;;;;;6.13;5.50;;;;;;;9.43;38.90;95563.13;6908976;28;20245;-76
2021/03/21 15:21:20;;;;;;;5.00;4.50;;;;;;;9.48;39.21;95562.75;6902323;28;20214;-76
2021/03/21 15:24:40;;;;;;;5.83;4.67;;;;;;;9.44;39.37;95556.88;6905589;28;20223;-76
2021/03/21 15:28:01;;;;;;;7.23;4.83;;;;;;;9.26;39.99;95555.66;6899002;28;20221;-76
2021/03/21 15:31:25;;;;;;;5.70;5.10;;;;;;;9.11;40.50;95545.41;6903203;28;20222;-75
2021/03/21 15:34:47;;;;;;;5.53;4.80;;;;;;;9.05;40.79;95552.88;6904210;28;20768;-76
2021/03/21 15:38:10;;;;;;;5.87;5.20;;;;;;;9.05;40.88;95555.53;6899386;28;20226;-76
2021/03/21 15:41:32;;;;;;;5.30;4.80;;;;;;;8.93;40.93;95561.81;6904168;28;20278;-77
2021/03/21 15:44:52;;;;;;;5.60;5.03;;;;;;;8.79;40.95;95566.47;6901812;28;20233;-79
2021/03/21 15:48:13;;;;;;;5.93;5.37;;;;;;;8.55;41.90;95570.00;6902222;28;20213;-77
2021/03/21 15:51:34;;;;;;;6.00;5.40;;;;;;;8.39;43.22;95588.03;6903423;28;20332;-77
2021/03/21 15:54:57;;;;;;;8.10;6.47;;;;;;;8.34;44.04;95587.53;6903524;28;20228;-77
2021/03/21 15:58:18;;;;;;;6.83;5.80;;;;;;;8.22;44.44;95590.19;6906235;28;20218;-76
2021/03/21 16:01:38;;;;;;;8.07;6.37;;;;;;;8.17;44.64;95594.03;6904383;28;20326;-78
2021/03/21 16:04:59;;;;;;;6.90;5.83;;;;;;;8.15;44.56;95590.66;6906178;28;20228;-78
2021/03/21 16:08:20;;;;;;;9.07;6.83;;;;;;;8.15;44.69;95581.84;6904268;28;20213;-77
2021/03/21 16:11:44;;;;;;;7.77;6.50;;;;;;;8.17;44.94;95585.25;6903016;28;20254;-78
2021/03/21 16:15:08;;;;;;;7.80;6.70;;;;;;;8.23;44.45;95590.09;6903983;28;20726;-78
2021/03/21 16:18:29;;;;;;;8.10;6.87;;;;;;;8.24;44.70;95601.53;6905216;28;20287;-78
2021/03/21 16:21:49;;;;;;;8.00;6.80;;;;;;;8.24;45.04;95601.53;6904332;28;20240;-79
2021/03/21 16:25:11;;;;;;;8.47;6.67;;;;;;;8.15;45.49;95595.94;6909041;28;20772;-79
2021/03/21 16:28:34;;;;;;;9.43;7.60;;;;;;;7.99;46.40;95595.41;6910650;28;20304;-78
2021/03/21 16:31:55;;;;;;;9.60;7.33;;;;;;;7.95;46.88;95593.91;6907575;28;20706;-78
2021/03/21 16:35:19;;;;;;;7.87;7.07;;;;;;;7.97;47.22;95591.16;6909512;28;20231;-80
2021/03/21 16:38:39;;;;;;;8.27;7.23;;;;;;;8.04;47.64;95593.25;6913539;28;20269;-79
2021/03/21 16:42:00;;;;;;;7.87;6.67;;;;;;;8.02;47.21;95594.31;6905587;28;20220;-80